Aeroporto :
LOGIN :

Iscrizione | Disclaimer

   EN    FR    IT 

 










Sommario :    VFR   VFR Marginale   IFR   IFR Intensivo   IFR Molto Intensivo
Visibilità : 
Base nubi : 
>= 8 km
>= 3000ft
5 / 8 km
1000 / 3000 ft
1500m / 5 km
500 / 1000 ft
800 / 1500m
200 / 500 ft
< 800m
< 200 ft
Simboli :   Temporali  Nebbia  Neve Forte  Precipitazioni Forti  Vento > 20 kt
SIGMETs :   Varie  Temporali  Ghiacco  Turbolenza  Onda orograficha  Ceneri Vulcaniche






- Altitudine del aeroporto : 27 ft
- Codice IATA : PMI


LEPA - Palma de Mallorca

ULTIMO METAR :
  • 171600Z 23008KT 200V260 9999 FEW020 16/13 Q1024 NOSIG

METARs OBSOLETI :
  • 171530Z 23009KT 9999 SCT020 16/13 Q1024 NOSIG
  • 171500Z 23009KT 9999 BKN020 16/13 Q1024 NOSIG
  • 171430Z 23010KT 9999 FEW012 BKN018 16/14 Q1024 NOSIG
  • 171400Z 23010KT 9999 FEW012 BKN018 16/13 Q1024 NOSIG
  • 171330Z 22009KT 9000 FEW010 OVC018 16/13 Q1024 NOSIG

TAF AMD TAF LEPA
Valido dal 17 a 14 ore il 18 a 12 ore UTC


171413Z 1714/1812 21008KT 9999 FEW010 TX16/1714Z TN07/1806Z
PROB40
TEMPO 1718/1721 VRB04KT 3000 BR BKN006
BECMG 1721/1723 05015KT FEW030
TEMPO 1802/1806 05017G27KT



MetMap, La meteo Aeronautica in un colpo d'occhio ! - Copyright ORBIFLY Dicembre 2007 - Disclaimer

ORBIFLY MET'MAP TEAM :

Programmazione e sviluppo : Alexandra Zaïnal
Concezione : Baudouin d'Aumeries
Aiuto per la programmazione : Marc-Olivier Méhu
Supporto tecnico e logistico : Manuel Goepfert
Aiuto per la traduzione : Arnaldo La Scala

Contatto : metmap@orbifly.com




FONTI E CREDITI :

   NOAA